Time;durP1;ratioP1;P1;durP2;ratioP2;P2;SDS_P1;SDS_P2;PMS_P1;PMS_P2;Temp;Humidity;BMP_temperature;BMP_pressure;BME280_temperature;BME280_humidity;BME280_pressure;Samples;Min_cycle;Max_cycle;Signal;HPM_P1;HPM_P2
2022/10/12 00:00:39;;;;;;;;;;;14.90;87.90;;;;;;5065384;28;19999;-68
2022/10/12 00:03:06;;;;;;;;;;;14.90;87.90;;;;;;5063342;28;20110;-69
2022/10/12 00:05:33;;;;;;;;;;;14.80;87.90;;;;;;5066307;28;19976;-69
2022/10/12 00:07:59;;;;;;;;;;;14.80;87.90;;;;;;5060468;28;19984;-68
2022/10/12 00:10:27;;;;;;;;;;;14.80;87.90;;;;;;5063875;28;19991;-68
2022/10/12 00:12:54;;;;;;;;;;;14.80;88.00;;;;;;5061829;28;19976;-69
2022/10/12 00:15:20;;;;;;;;;;;14.70;88.00;;;;;;5064450;28;19998;-68
2022/10/12 00:17:47;;;;;;;;;;;14.70;88.00;;;;;;5064104;28;19983;-69
2022/10/12 00:20:13;;;;;;;;;;;14.70;88.10;;;;;;5063830;28;20003;-69
2022/10/12 00:22:40;;;;;;;;;;;14.60;88.00;;;;;;5063869;28;19983;-68
2022/10/12 00:25:07;;;;;;;;;;;14.60;88.10;;;;;;5064124;28;20470;-68
2022/10/12 00:27:34;;;;;;;;;;;14.60;88.10;;;;;;5065285;28;19972;-68
2022/10/12 00:30:01;;;;;;;;;;;14.60;88.20;;;;;;5061321;28;19999;-68
2022/10/12 00:32:28;;;;;;;;;;;14.60;88.20;;;;;;5060211;28;20014;-68
2022/10/12 00:34:54;;;;;;;;;;;14.50;88.20;;;;;;5058498;28;20618;-68
2022/10/12 00:37:21;;;;;;;;;;;14.50;88.10;;;;;;5064137;28;20586;-68
2022/10/12 00:39:48;;;;;;;;;;;14.50;88.10;;;;;;5063714;28;19998;-69
2022/10/12 00:42:14;;;;;;;;;;;14.50;88.10;;;;;;5064347;28;19979;-68
2022/10/12 00:44:43;;;;;;;;;;;14.50;88.20;;;;;;5063255;28;20262;-68
2022/10/12 00:47:15;;;;;;;;;;;14.40;88.10;;;;;;5062007;28;19995;-68
2022/10/12 00:49:43;;;;;;;;;;;14.40;88.30;;;;;;5063563;28;19991;-68
2022/10/12 00:52:11;;;;;;;;;;;14.40;88.40;;;;;;5065286;28;19987;-68
2022/10/12 00:54:42;;;;;;;;;;;14.40;88.40;;;;;;5060095;28;21897;-68
2022/10/12 00:57:09;;;;;;;;;;;14.30;88.40;;;;;;5060860;28;19984;-68
2022/10/12 00:59:39;;;;;;;;;;;14.30;88.40;;;;;;5063418;28;20433;-68
2022/10/12 01:02:07;;;;;;;;;;;14.30;88.50;;;;;;5062393;28;19996;-68
2022/10/12 01:04:34;;;;;;;;;;;14.30;88.40;;;;;;5064498;28;19976;-68
2022/10/12 01:07:00;;;;;;;;;;;14.30;88.50;;;;;;5064849;28;19986;-68
2022/10/12 01:09:27;;;;;;;;;;;14.30;88.50;;;;;;5058700;28;19995;-68
2022/10/12 01:11:56;;;;;;;;;;;14.20;88.50;;;;;;5062869;28;19975;-68
2022/10/12 01:14:23;;;;;;;;;;;14.20;88.50;;;;;;5063000;28;20048;-68
2022/10/12 01:16:52;;;;;;;;;;;14.20;89.30;;;;;;5062326;28;20002;-68
2022/10/12 01:19:27;;;;;;;;;;;14.20;88.60;;;;;;5062075;28;20003;-68
2022/10/12 01:21:57;;;;;;;;;;;14.20;88.70;;;;;;5060170;28;19979;-68
2022/10/12 01:24:31;;;;;;;;;;;14.20;88.80;;;;;;5063424;28;19975;-68
2022/10/12 01:27:17;;;;;;;;;;;14.10;88.70;;;;;;5064572;28;20302;-68
2022/10/12 01:30:00;;;;;;;;;;;14.10;88.80;;;;;;5062182;28;20004;-68
2022/10/12 01:32:30;;;;;;;;;;;14.10;88.80;;;;;;5060060;28;20014;-68
2022/10/12 01:34:58;;;;;;;;;;;14.10;88.80;;;;;;5063372;28;19982;-68
2022/10/12 01:37:31;;;;;;;;;;;14.10;88.80;;;;;;5063478;28;19983;-67
2022/10/12 01:40:00;;;;;;;;;;;14.00;88.80;;;;;;5062692;28;19991;-68
2022/10/12 01:42:29;;;;;;;;;;;14.00;88.80;;;;;;5056907;28;20459;-68
2022/10/12 01:45:04;;;;;;;;;;;14.00;88.90;;;;;;5062847;28;20525;-68
2022/10/12 01:47:31;;;;;;;;;;;14.00;88.90;;;;;;5056128;28;20002;-69
2022/10/12 01:49:58;;;;;;;;;;;14.00;88.90;;;;;;5063275;28;20340;-68
2022/10/12 01:52:27;;;;;;;;;;;13.90;88.90;;;;;;5063547;28;19979;-69
2022/10/12 01:55:00;;;;;;;;;;;13.90;89.00;;;;;;5064003;28;20447;-67
2022/10/12 01:57:30;;;;;;;;;;;13.90;89.00;;;;;;5056541;28;20014;-68
2022/10/12 02:00:01;;;;;;;;;;;13.90;89.00;;;;;;5063535;28;19992;-68
2022/10/12 02:02:34;;;;;;;;;;;13.80;89.00;;;;;;5057187;28;20006;-68
2022/10/12 02:05:05;;;;;;;;;;;13.80;89.00;;;;;;5064108;28;19990;-68
2022/10/12 02:07:37;;;;;;;;;;;13.80;89.10;;;;;;5063434;28;20411;-68
2022/10/12 02:10:04;;;;;;;;;;;13.80;89.10;;;;;;5063441;28;19998;-68
2022/10/12 02:12:31;;;;;;;;;;;13.70;89.10;;;;;;5061408;28;20445;-68
2022/10/12 02:15:01;;;;;;;;;;;13.70;89.80;;;;;;5063750;28;19976;-68
2022/10/12 02:17:30;;;;;;;;;;;13.70;89.10;;;;;;5062222;28;19991;-68
2022/10/12 02:19:57;;;;;;;;;;;13.70;89.20;;;;;;5062459;28;19991;-68
2022/10/12 02:22:26;;;;;;;;;;;13.70;89.20;;;;;;5062297;28;19996;-68
2022/10/12 02:24:54;;;;;;;;;;;13.60;89.20;;;;;;5063654;28;19975;-69
2022/10/12 02:27:21;;;;;;;;;;;13.60;89.30;;;;;;5063140;28;20514;-68
2022/10/12 02:29:48;;;;;;;;;;;13.60;89.30;;;;;;5061980;28;20002;-68
2022/10/12 02:32:17;;;;;;;;;;;13.60;89.30;;;;;;5058054;28;19996;-68
2022/10/12 02:34:47;;;;;;;;;;;13.60;89.40;;;;;;5064417;28;20089;-68
2022/10/12 02:37:21;;;;;;;;;;;13.60;89.40;;;;;;5066723;28;19995;-68
2022/10/12 02:39:49;;;;;;;;;;;13.60;89.40;;;;;;5066184;28;19991;-68
2022/10/12 02:42:18;;;;;;;;;;;13.50;90.00;;;;;;5061087;28;19979;-68
2022/10/12 02:44:46;;;;;;;;;;;13.50;89.40;;;;;;5064503;28;20367;-67
2022/10/12 02:47:14;;;;;;;;;;;13.50;89.40;;;;;;5060181;28;19995;-68
2022/10/12 02:49:41;;;;;;;;;;;13.50;89.40;;;;;;5065805;28;19995;-68
2022/10/12 02:52:09;;;;;;;;;;;13.50;89.40;;;;;;5064399;28;19980;-68
2022/10/12 02:54:36;;;;;;;;;;;13.50;89.50;;;;;;5062696;28;19983;-68
2022/10/12 02:57:03;;;;;;;;;;;13.40;89.40;;;;;;5063358;28;19995;-68
2022/10/12 02:59:29;;;;;;;;;;;13.40;89.40;;;;;;5065499;28;19991;-68
2022/10/12 03:01:56;;;;;;;;;;;13.40;89.40;;;;;;5064892;28;19995;-68
2022/10/12 03:04:22;;;;;;;;;;;13.40;89.40;;;;;;5066458;28;19976;-68
2022/10/12 03:06:49;;;;;;;;;;;13.40;89.40;;;;;;5066492;28;19979;-68
2022/10/12 03:09:17;;;;;;;;;;;13.30;89.40;;;;;;5060508;28;19991;-68
2022/10/12 03:11:44;;;;;;;;;;;13.30;89.40;;;;;;5065767;28;20002;-69
2022/10/12 03:14:11;;;;;;;;;;;13.30;89.60;;;;;;5064015;28;19979;-69
2022/10/12 03:16:37;;;;;;;;;;;13.30;89.60;;;;;;5065088;28;19995;-69
2022/10/12 03:19:04;;;;;;;;;;;13.30;89.60;;;;;;5065354;28;20006;-68
2022/10/12 03:21:30;;;;;;;;;;;13.30;89.60;;;;;;5063509;28;19979;-69
2022/10/12 03:23:57;;;;;;;;;;;13.30;89.70;;;;;;5065820;28;19975;-68
2022/10/12 03:26:25;;;;;;;;;;;13.20;89.70;;;;;;5067367;28;19976;-68
2022/10/12 03:28:51;;;;;;;;;;;13.30;89.80;;;;;;5065983;28;19999;-68
2022/10/12 03:31:18;;;;;;;;;;;13.20;89.70;;;;;;5063386;28;20002;-68
2022/10/12 03:33:44;;;;;;;;;;;13.20;89.70;;;;;;5060159;28;19979;-68
2022/10/12 03:36:11;;;;;;;;;;;13.20;89.70;;;;;;5065410;28;20021;-69
2022/10/12 03:38:37;;;;;;;;;;;13.20;89.80;;;;;;5065178;28;19980;-68
2022/10/12 03:41:04;;;;;;;;;;;13.10;89.70;;;;;;5065620;28;19979;-68
2022/10/12 03:43:32;;;;;;;;;;;13.10;89.80;;;;;;5064385;28;19980;-68
2022/10/12 03:45:59;;;;;;;;;;;13.20;89.90;;;;;;5064799;28;19991;-68
2022/10/12 03:48:25;;;;;;;;;;;13.20;89.90;;;;;;5059447;28;20644;-68
2022/10/12 03:50:52;;;;;;;;;;;13.10;89.90;;;;;;5065267;28;19983;-68
2022/10/12 03:53:19;;;;;;;;;;;13.10;89.90;;;;;;5065245;28;19986;-67
2022/10/12 03:55:46;;;;;;;;;;;13.10;90.00;;;;;;5060723;28;20474;-69
2022/10/12 03:58:13;;;;;;;;;;;13.10;90.00;;;;;;5062245;28;20013;-68
2022/10/12 04:00:41;;;;;;;;;;;13.10;90.00;;;;;;5064537;28;20014;-69
2022/10/12 04:03:07;;;;;;;;;;;13.10;90.00;;;;;;5064231;28;19979;-68
2022/10/12 04:05:34;;;;;;;;;;;13.00;90.00;;;;;;5064530;28;19976;-69
2022/10/12 04:08:00;;;;;;;;;;;13.10;90.00;;;;;;5064928;28;20557;-68
2022/10/12 04:10:27;;;;;;;;;;;13.00;90.00;;;;;;5062952;28;20687;-68
2022/10/12 04:12:54;;;;;;;;;;;13.00;90.40;;;;;;5061589;28;20378;-68
2022/10/12 04:15:20;;;;;;;;;;;13.00;90.00;;;;;;5063577;28;19980;-68
2022/10/12 04:17:48;;;;;;;;;;;13.00;90.00;;;;;;5062608;28;19991;-68
2022/10/12 04:20:15;;;;;;;;;;;12.90;90.10;;;;;;5063018;28;19996;-68
2022/10/12 04:22:41;;;;;;;;;;;13.00;90.10;;;;;;5061548;28;19986;-68
2022/10/12 04:25:09;;;;;;;;;;;12.90;90.10;;;;;;5063825;28;19986;-68
2022/10/12 04:27:36;;;;;;;;;;;13.00;90.10;;;;;;5064643;28;20358;-69
2022/10/12 04:30:02;;;;;;;;;;;12.90;90.10;;;;;;5062575;28;20388;-68
2022/10/12 04:32:30;;;;;;;;;;;12.90;90.10;;;;;;5059531;28;20348;-69
2022/10/12 04:34:58;;;;;;;;;;;13.00;90.20;;;;;;5063223;28;19982;-68
2022/10/12 04:37:26;;;;;;;;;;;13.00;90.20;;;;;;5064156;28;20425;-69
2022/10/12 04:39:52;;;;;;;;;;;12.90;90.20;;;;;;5062398;28;20003;-68
2022/10/12 04:42:19;;;;;;;;;;;12.90;90.20;;;;;;5063594;28;20467;-68
2022/10/12 04:44:46;;;;;;;;;;;12.90;90.20;;;;;;5059830;28;20577;-68
2022/10/12 04:47:12;;;;;;;;;;;12.90;90.20;;;;;;5062377;28;19995;-68
2022/10/12 04:49:39;;;;;;;;;;;12.90;90.20;;;;;;5062549;28;20003;-68
2022/10/12 04:52:06;;;;;;;;;;;12.90;90.30;;;;;;5064082;28;19979;-68
2022/10/12 04:54:33;;;;;;;;;;;12.90;90.30;;;;;;5064112;28;19976;-68
2022/10/12 04:57:00;;;;;;;;;;;12.80;90.20;;;;;;5058116;28;19998;-67
2022/10/12 04:59:26;;;;;;;;;;;12.70;90.20;;;;;;5063983;28;19995;-70
2022/10/12 05:01:53;;;;;;;;;;;12.70;90.80;;;;;;5062730;28;19991;-70
2022/10/12 05:04:20;;;;;;;;;;;12.60;90.90;;;;;;5064441;28;20018;-70
2022/10/12 05:06:47;;;;;;;;;;;12.60;91.00;;;;;;5064744;28;19979;-70
2022/10/12 05:09:15;;;;;;;;;;;12.60;91.10;;;;;;5063376;28;20002;-70
2022/10/12 05:11:41;;;;;;;;;;;12.50;91.10;;;;;;5062459;28;19975;-69
2022/10/12 05:14:08;;;;;;;;;;;12.60;91.10;;;;;;5064638;28;20359;-69
2022/10/12 05:16:35;;;;;;;;;;;12.60;91.10;;;;;;5064538;28;19996;-70
2022/10/12 05:19:01;;;;;;;;;;;12.60;91.00;;;;;;5063970;28;20003;-69
2022/10/12 05:21:28;;;;;;;;;;;12.60;91.00;;;;;;5061811;28;19976;-69
2022/10/12 05:23:54;;;;;;;;;;;12.60;91.00;;;;;;5064734;28;19975;-70
2022/10/12 05:26:22;;;;;;;;;;;12.50;91.00;;;;;;5064775;28;19979;-70
2022/10/12 05:28:49;;;;;;;;;;;12.60;91.00;;;;;;5060455;28;19992;-70
2022/10/12 05:31:15;;;;;;;;;;;12.50;91.00;;;;;;5058157;28;20003;-70
2022/10/12 05:33:42;;;;;;;;;;;12.60;91.00;;;;;;5060366;28;19979;-70
2022/10/12 05:36:08;;;;;;;;;;;12.60;91.00;;;;;;5064489;28;19986;-70
2022/10/12 05:38:35;;;;;;;;;;;12.60;91.00;;;;;;5063926;28;19975;-70
2022/10/12 05:41:02;;;;;;;;;;;12.50;90.90;;;;;;5065579;28;19980;-70
2022/10/12 05:43:30;;;;;;;;;;;12.50;91.00;;;;;;5056833;28;20014;-70
2022/10/12 05:45:56;;;;;;;;;;;12.50;91.00;;;;;;5064531;28;20002;-70
2022/10/12 05:48:23;;;;;;;;;;;12.50;90.90;;;;;;5059627;28;20313;-68
2022/10/12 05:50:51;;;;;;;;;;;12.50;90.90;;;;;;5065005;28;19975;-70
2022/10/12 05:53:18;;;;;;;;;;;12.50;91.00;;;;;;5065726;28;19983;-70
2022/10/12 05:55:51;;;;;;;;;;;12.50;91.00;;;;;;5059616;28;19975;-70
2022/10/12 05:58:17;;;;;;;;;;;12.50;91.00;;;;;;5062985;28;19995;-70
2022/10/12 06:00:45;;;;;;;;;;;12.50;91.00;;;;;;5063411;28;20006;-70
2022/10/12 06:03:12;;;;;;;;;;;12.50;91.30;;;;;;5062386;28;19987;-69
2022/10/12 06:05:38;;;;;;;;;;;12.40;90.90;;;;;;5064271;28;20399;-69
2022/10/12 06:08:06;;;;;;;;;;;12.50;91.00;;;;;;5064278;28;19983;-70
2022/10/12 06:10:32;;;;;;;;;;;12.40;90.90;;;;;;5061891;28;20016;-70
2022/10/12 06:12:59;;;;;;;;;;;12.40;91.00;;;;;;5068863;28;20058;-70
2022/10/12 06:15:25;;;;;;;;;;;12.50;91.00;;;;;;5067097;28;20431;-70
2022/10/12 06:17:54;;;;;;;;;;;12.40;91.00;;;;;;5067162;28;20003;-70
2022/10/12 06:20:20;;;;;;;;;;;12.50;91.00;;;;;;5065647;28;19995;-68
2022/10/12 06:22:47;;;;;;;;;;;12.40;91.00;;;;;;5064142;28;19975;-70
2022/10/12 06:25:13;;;;;;;;;;;12.40;91.00;;;;;;5067974;28;19979;-70
2022/10/12 06:27:40;;;;;;;;;;;12.40;91.00;;;;;;5067442;28;19975;-70
2022/10/12 06:30:07;;;;;;;;;;;12.40;91.00;;;;;;5068109;28;19999;-70
2022/10/12 06:32:34;;;;;;;;;;;12.40;91.00;;;;;;5059442;28;20840;-70
2022/10/12 06:35:02;;;;;;;;;;;12.40;91.00;;;;;;5067678;28;19980;-70
2022/10/12 06:37:29;;;;;;;;;;;12.40;91.00;;;;;;5062749;28;20066;-70
2022/10/12 06:39:56;;;;;;;;;;;12.40;91.10;;;;;;5067084;28;20078;-70
2022/10/12 06:42:23;;;;;;;;;;;12.40;91.00;;;;;;5066050;28;19980;-69
2022/10/12 06:44:49;;;;;;;;;;;12.40;91.10;;;;;;5066299;28;19983;-70
2022/10/12 06:47:16;;;;;;;;;;;12.40;91.10;;;;;;5062585;28;20003;-69
2022/10/12 06:49:42;;;;;;;;;;;12.40;91.10;;;;;;5066182;28;19999;-70
2022/10/12 06:52:10;;;;;;;;;;;12.50;91.50;;;;;;5067516;28;19987;-69
2022/10/12 06:54:37;;;;;;;;;;;12.40;91.10;;;;;;5067212;28;19983;-69
2022/10/12 06:57:04;;;;;;;;;;;12.40;91.10;;;;;;5065046;28;19999;-69
2022/10/12 06:59:31;;;;;;;;;;;12.40;91.10;;;;;;5065656;28;19991;-70
2022/10/12 07:01:58;;;;;;;;;;;12.40;91.10;;;;;;5063519;28;20359;-70
2022/10/12 07:04:24;;;;;;;;;;;12.40;91.10;;;;;;5066240;28;19982;-70
2022/10/12 07:06:51;;;;;;;;;;;12.40;91.10;;;;;;5066980;28;19979;-70
2022/10/12 07:09:19;;;;;;;;;;;12.40;91.10;;;;;;5065636;28;19996;-68
2022/10/12 07:11:45;;;;;;;;;;;12.50;91.10;;;;;;5061422;28;19982;-70
2022/10/12 07:14:12;;;;;;;;;;;12.40;91.10;;;;;;5066516;28;20007;-70
2022/10/12 07:16:38;;;;;;;;;;;12.50;91.10;;;;;;5065759;28;19991;-70
2022/10/12 07:19:05;;;;;;;;;;;12.40;91.10;;;;;;5065783;28;20002;-70
2022/10/12 07:21:31;;;;;;;;;;;12.50;91.10;;;;;;5062922;28;19982;-70
2022/10/12 07:23:58;;;;;;;;;;;12.50;91.10;;;;;;5066474;28;19976;-69
2022/10/12 07:26:26;;;;;;;;;;;12.50;91.10;;;;;;5066922;28;19975;-70
2022/10/12 07:28:52;;;;;;;;;;;12.50;91.10;;;;;;5066287;28;20380;-71
2022/10/12 07:31:19;;;;;;;;;;;12.50;91.10;;;;;;5062622;28;20310;-69
2022/10/12 07:33:46;;;;;;;;;;;12.50;91.10;;;;;;5061948;28;19975;-70
2022/10/12 07:36:12;;;;;;;;;;;12.50;91.10;;;;;;5066026;28;19986;-70
2022/10/12 07:38:39;;;;;;;;;;;12.50;91.10;;;;;;5065684;28;19991;-70
2022/10/12 07:41:05;;;;;;;;;;;12.60;91.10;;;;;;5066079;28;20095;-70
2022/10/12 07:43:33;;;;;;;;;;;12.50;91.00;;;;;;5062312;28;20694;-69
2022/10/12 07:46:00;;;;;;;;;;;12.50;91.00;;;;;;5064435;28;20352;-70
2022/10/12 07:48:27;;;;;;;;;;;12.50;91.00;;;;;;5061409;28;20426;-69
2022/10/12 07:50:53;;;;;;;;;;;12.50;91.00;;;;;;5066156;28;20601;-70
2022/10/12 07:53:20;;;;;;;;;;;12.50;91.00;;;;;;5061148;28;20488;-69
2022/10/12 07:55:46;;;;;;;;;;;12.60;91.00;;;;;;5066338;28;19975;-70
2022/10/12 07:58:14;;;;;;;;;;;12.60;91.20;;;;;;5065425;28;19995;-69
2022/10/12 08:00:42;;;;;;;;;;;12.60;91.00;;;;;;5062755;28;19996;-70
2022/10/12 08:03:08;;;;;;;;;;;12.60;90.90;;;;;;5059306;28;19979;-70
2022/10/12 08:05:36;;;;;;;;;;;12.60;90.90;;;;;;5065869;28;20494;-71
2022/10/12 08:08:03;;;;;;;;;;;12.60;90.90;;;;;;5065864;28;19979;-69
2022/10/12 08:10:30;;;;;;;;;;;12.60;90.90;;;;;;5065296;28;19995;-70
2022/10/12 08:12:56;;;;;;;;;;;12.60;90.80;;;;;;5059996;28;20053;-70
2022/10/12 08:15:23;;;;;;;;;;;12.70;90.90;;;;;;5064805;28;19979;-69
2022/10/12 08:17:51;;;;;;;;;;;12.70;90.90;;;;;;5064854;28;19983;-70
2022/10/12 08:20:17;;;;;;;;;;;12.70;90.90;;;;;;5065262;28;20003;-70
2022/10/12 08:22:44;;;;;;;;;;;12.70;90.80;;;;;;5063111;28;19986;-68
2022/10/12 08:25:10;;;;;;;;;;;12.70;90.80;;;;;;5065315;28;19979;-70
2022/10/12 08:27:38;;;;;;;;;;;12.70;90.80;;;;;;5065144;28;19975;-70
2022/10/12 08:30:04;;;;;;;;;;;12.70;90.80;;;;;;5064159;28;20057;-69
2022/10/12 08:32:31;;;;;;;;;;;12.80;90.80;;;;;;5058848;28;19991;-70
2022/10/12 08:34:59;;;;;;;;;;;12.80;90.80;;;;;;5065173;28;19976;-70
2022/10/12 08:37:25;;;;;;;;;;;12.80;90.70;;;;;;5064168;28;20403;-69
2022/10/12 08:39:52;;;;;;;;;;;12.80;90.70;;;;;;5064573;28;20455;-69
2022/10/12 08:42:26;;;;;;;;;;;12.80;90.60;;;;;;5063455;28;20054;-70
2022/10/12 08:44:58;;;;;;;;;;;12.80;90.60;;;;;;5064313;28;19982;-70
2022/10/12 08:47:29;;;;;;;;;;;12.80;90.60;;;;;;5060537;28;19991;-69
2022/10/12 08:49:55;;;;;;;;;;;12.90;90.70;;;;;;5062371;28;19991;-70
2022/10/12 08:52:27;;;;;;;;;;;12.90;90.70;;;;;;5060409;28;19979;-70
2022/10/12 08:54:55;;;;;;;;;;;12.90;90.70;;;;;;5063831;28;19975;-70
2022/10/12 08:57:22;;;;;;;;;;;12.90;90.70;;;;;;5064923;28;19986;-69
2022/10/12 08:59:48;;;;;;;;;;;12.90;90.70;;;;;;5058230;28;19991;-70
2022/10/12 09:02:25;;;;;;;;;;;12.90;90.60;;;;;;5058560;28;20003;-70
2022/10/12 09:04:54;;;;;;;;;;;12.90;90.60;;;;;;5060318;28;19976;-70
2022/10/12 09:07:26;;;;;;;;;;;13.00;90.60;;;;;;5063748;28;19983;-70
2022/10/12 09:10:00;;;;;;;;;;;13.00;90.60;;;;;;5057341;28;20317;-70
2022/10/12 09:12:37;;;;;;;;;;;13.00;90.60;;;;;;5064290;28;20247;-70
2022/10/12 09:15:08;;;;;;;;;;;13.10;90.60;;;;;;5065394;28;19987;-69
2022/10/12 09:17:37;;;;;;;;;;;13.10;90.50;;;;;;5038873;28;20003;-70
2022/10/12 09:20:06;;;;;;;;;;;13.10;90.50;;;;;;5044389;28;20101;-69
2022/10/12 09:22:34;;;;;;;;;;;13.10;90.50;;;;;;5041831;28;19975;-70
2022/10/12 09:25:02;;;;;;;;;;;13.20;90.50;;;;;;5037377;28;19976;-70
2022/10/12 09:27:30;;;;;;;;;;;13.20;90.40;;;;;;5032860;28;19982;-68
2022/10/12 09:29:58;;;;;;;;;;;13.20;90.40;;;;;;5034302;28;20085;-69
2022/10/12 09:32:36;;;;;;;;;;;13.20;90.30;;;;;;5036244;28;19995;-69
2022/10/12 09:35:03;;;;;;;;;;;13.20;90.30;;;;;;5043361;28;20328;-70
2022/10/12 09:37:31;;;;;;;;;;;13.20;90.30;;;;;;5037006;28;19980;-70
2022/10/12 09:39:58;;;;;;;;;;;13.30;90.30;;;;;;5042629;28;19998;-69
2022/10/12 09:42:26;;;;;;;;;;;13.30;90.30;;;;;;5044535;28;19983;-70
2022/10/12 09:44:56;;;;;;;;;;;13.30;90.20;;;;;;5046407;28;19994;-70
2022/10/12 09:47:25;;;;;;;;;;;13.30;90.20;;;;;;5043512;28;20207;-70
2022/10/12 09:49:53;;;;;;;;;;;13.40;90.20;;;;;;5048134;28;19992;-70
2022/10/12 09:52:21;;;;;;;;;;;13.40;90.20;;;;;;5048292;28;20027;-70
2022/10/12 09:54:50;;;;;;;;;;;13.40;90.10;;;;;;5048796;28;20340;-70
2022/10/12 09:57:20;;;;;;;;;;;13.50;90.10;;;;;;5046784;28;19980;-70
2022/10/12 09:59:48;;;;;;;;;;;13.50;90.00;;;;;;5047002;28;20753;-70
2022/10/12 10:02:15;;;;;;;;;;;13.50;90.00;;;;;;5043472;28;20003;-70
2022/10/12 10:04:43;;;;;;;;;;;13.60;90.00;;;;;;5048942;28;19999;-70
2022/10/12 10:07:18;;;;;;;;;;;13.60;89.90;;;;;;5047582;28;19987;-70
2022/10/12 10:09:45;;;;;;;;;;;13.70;89.90;;;;;;5047733;28;19995;-70
2022/10/12 10:12:13;;;;;;;;;;;13.70;89.70;;;;;;5047101;28;19983;-70
2022/10/12 10:14:42;;;;;;;;;;;13.80;90.00;;;;;;5048656;28;20016;-71
2022/10/12 10:17:13;;;;;;;;;;;13.80;89.80;;;;;;5063005;28;20020;-71
2022/10/12 10:19:40;;;;;;;;;;;13.80;89.70;;;;;;5067980;28;19995;-70
2022/10/12 10:22:06;;;;;;;;;;;13.90;89.60;;;;;;5064385;28;19986;-70
2022/10/12 10:24:33;;;;;;;;;;;13.90;89.70;;;;;;5068596;28;19991;-70
2022/10/12 10:27:02;;;;;;;;;;;14.00;89.70;;;;;;5067022;28;19982;-70
2022/10/12 10:29:35;;;;;;;;;;;14.10;89.30;;;;;;5062728;28;20506;-69
2022/10/12 10:32:22;;;;;;;;;;;14.10;89.00;;;;;;5060175;28;19992;-70
2022/10/12 10:35:00;;;;;;;;;;;14.20;89.00;;;;;;5064591;28;20062;-71
2022/10/12 10:37:27;;;;;;;;;;;14.30;88.80;;;;;;5066287;28;19976;-70
2022/10/12 10:39:55;;;;;;;;;;;14.30;88.70;;;;;;5067344;28;20002;-70
2022/10/12 10:42:24;;;;;;;;;;;14.40;88.80;;;;;;5062059;28;19980;-70
2022/10/12 10:44:52;;;;;;;;;;;14.50;88.70;;;;;;5067550;28;19990;-69
2022/10/12 10:47:20;;;;;;;;;;;14.60;87.90;;;;;;5062986;28;19995;-70
2022/10/12 10:49:48;;;;;;;;;;;14.60;87.90;;;;;;5067091;28;19995;-71
2022/10/12 10:52:21;;;;;;;;;;;14.70;87.60;;;;;;5067204;28;19979;-71
2022/10/12 10:54:48;;;;;;;;;;;14.90;86.70;;;;;;5066716;28;19979;-71
2022/10/12 10:57:17;;;;;;;;;;;14.90;86.50;;;;;;5061173;28;20388;-71
2022/10/12 10:59:47;;;;;;;;;;;15.00;86.30;;;;;;5067114;28;19995;-71
2022/10/12 11:02:31;;;;;;;;;;;15.10;86.20;;;;;;5063178;28;20483;-70
2022/10/12 11:05:01;;;;;;;;;;;15.10;86.00;;;;;;5063099;28;19976;-71
2022/10/12 11:07:30;;;;;;;;;;;15.20;85.60;;;;;;5066475;28;19990;-70
2022/10/12 11:09:58;;;;;;;;;;;15.30;85.20;;;;;;5066655;28;19991;-70
2022/10/12 11:12:26;;;;;;;;;;;15.40;85.30;;;;;;5060781;28;19999;-70
2022/10/12 11:14:55;;;;;;;;;;;15.40;85.50;;;;;;5067264;28;20331;-68
2022/10/12 11:17:25;;;;;;;;;;;15.40;84.90;;;;;;5064609;28;19995;-70
2022/10/12 11:19:54;;;;;;;;;;;15.50;85.00;;;;;;5065619;28;19995;-71
2022/10/12 11:22:23;;;;;;;;;;;15.60;85.30;;;;;;5060116;28;19986;-70
2022/10/12 11:24:52;;;;;;;;;;;15.60;84.50;;;;;;5066914;28;20439;-71
2022/10/12 11:27:22;;;;;;;;;;;15.70;84.60;;;;;;5065709;28;20030;-70
2022/10/12 11:29:49;;;;;;;;;;;15.70;84.80;;;;;;5065520;28;19995;-71
2022/10/12 11:32:22;;;;;;;;;;;15.70;84.90;;;;;;5062553;28;19999;-70
2022/10/12 11:34:51;;;;;;;;;;;15.80;84.70;;;;;;5066670;28;19976;-71
2022/10/12 11:37:20;;;;;;;;;;;15.90;84.60;;;;;;5065947;28;19991;-71
2022/10/12 11:39:49;;;;;;;;;;;15.90;84.60;;;;;;5065975;28;20003;-71
2022/10/12 11:42:19;;;;;;;;;;;16.00;84.10;;;;;;5064314;28;19986;-71
2022/10/12 11:44:47;;;;;;;;;;;16.00;83.80;;;;;;5065721;28;19987;-71
2022/10/12 11:47:17;;;;;;;;;;;16.10;83.70;;;;;;5059406;28;20517;-70
2022/10/12 11:49:47;;;;;;;;;;;16.20;83.60;;;;;;5065250;28;20372;-71
2022/10/12 11:52:15;;;;;;;;;;;16.20;83.60;;;;;;5066317;28;20340;-70
2022/10/12 11:54:47;;;;;;;;;;;16.30;83.60;;;;;;5066227;28;20282;-70
2022/10/12 11:57:16;;;;;;;;;;;16.30;83.30;;;;;;5061962;28;20368;-71
2022/10/12 11:59:44;;;;;;;;;;;16.40;83.00;;;;;;5065651;28;19995;-71
2022/10/12 12:02:14;;;;;;;;;;;16.40;82.90;;;;;;5060996;28;20002;-71
2022/10/12 12:04:42;;;;;;;;;;;16.50;83.80;;;;;;5059567;28;20347;-70
2022/10/12 12:07:23;;;;;;;;;;;16.60;82.60;;;;;;5064054;28;19979;-70
2022/10/12 12:09:53;;;;;;;;;;;16.60;82.60;;;;;;5054201;28;20310;-69
2022/10/12 12:12:21;;;;;;;;;;;16.70;83.00;;;;;;5063464;28;19979;-71
2022/10/12 12:15:09;;;;;;;;;;;16.70;82.90;;;;;;5066100;28;19975;-71
2022/10/12 12:17:37;;;;;;;;;;;16.70;82.80;;;;;;5056982;28;19991;-71
2022/10/12 12:20:04;;;;;;;;;;;16.80;82.70;;;;;;5065281;28;20487;-71
2022/10/12 12:22:47;;;;;;;;;;;16.70;82.30;;;;;;5062513;28;20467;-71
2022/10/12 12:25:20;;;;;;;;;;;16.80;82.80;;;;;;5064673;28;20505;-71
2022/10/12 12:27:48;;;;;;;;;;;16.80;82.80;;;;;;5065259;28;19983;-71
2022/10/12 12:30:23;;;;;;;;;;;16.80;82.60;;;;;;5063490;28;19991;-71
2022/10/12 12:32:51;;;;;;;;;;;16.80;82.60;;;;;;5059672;28;19975;-71
2022/10/12 12:35:18;;;;;;;;;;;16.90;82.60;;;;;;5064425;28;20058;-71
2022/10/12 12:37:46;;;;;;;;;;;17.00;82.20;;;;;;5065583;28;19983;-70
2022/10/12 12:40:20;;;;;;;;;;;17.00;81.90;;;;;;5064766;28;20042;-71
2022/10/12 12:42:47;;;;;;;;;;;17.00;81.80;;;;;;5060005;28;19975;-71
2022/10/12 12:45:32;;;;;;;;;;;17.10;81.70;;;;;;5064496;28;19991;-71
2022/10/12 12:47:59;;;;;;;;;;;17.20;81.60;;;;;;5060429;28;19975;-71
2022/10/12 12:50:34;;;;;;;;;;;17.30;81.60;;;;;;5065016;28;20078;-70
2022/10/12 12:53:03;;;;;;;;;;;17.30;81.20;;;;;;5064746;28;19987;-70
2022/10/12 12:55:39;;;;;;;;;;;17.40;80.70;;;;;;5065098;28;19983;-71
2022/10/12 12:58:27;;;;;;;;;;;17.50;81.00;;;;;;5061891;28;20523;-71
2022/10/12 13:01:02;;;;;;;;;;;17.50;81.10;;;;;;5061259;28;20002;-71
2022/10/12 13:03:40;;;;;;;;;;;17.50;81.00;;;;;;5060208;28;19975;-70
2022/10/12 13:06:28;;;;;;;;;;;17.60;81.00;;;;;;5065151;28;19979;-70
2022/10/12 13:09:05;;;;;;;;;;;17.60;80.90;;;;;;5060142;28;19998;-70
2022/10/12 13:11:42;;;;;;;;;;;17.60;80.80;;;;;;5063770;28;20355;-70
2022/10/12 13:14:14;;;;;;;;;;;17.70;80.70;;;;;;5064301;28;19979;-70
2022/10/12 13:16:56;;;;;;;;;;;17.70;80.80;;;;;;5062468;28;19998;-70
2022/10/12 13:19:23;;;;;;;;;;;17.70;80.90;;;;;;5061887;28;19999;-71
2022/10/12 13:21:50;;;;;;;;;;;17.70;81.00;;;;;;5061826;28;19982;-71
2022/10/12 13:24:20;;;;;;;;;;;17.70;80.50;;;;;;5064463;28;20422;-71
2022/10/12 13:26:49;;;;;;;;;;;17.80;80.70;;;;;;5063563;28;19982;-71
2022/10/12 13:29:18;;;;;;;;;;;17.80;80.60;;;;;;5063888;28;20561;-71
2022/10/12 13:31:46;;;;;;;;;;;17.90;80.20;;;;;;5060812;28;19995;-69
2022/10/12 13:34:16;;;;;;;;;;;17.90;80.30;;;;;;5060198;28;19987;-70
2022/10/12 13:36:49;;;;;;;;;;;17.90;80.50;;;;;;5064175;28;19975;-71
2022/10/12 13:39:16;;;;;;;;;;;18.00;80.50;;;;;;5062252;28;19999;-70
2022/10/12 13:41:43;;;;;;;;;;;18.00;80.20;;;;;;5058904;28;20002;-69
2022/10/12 13:44:19;;;;;;;;;;;18.00;80.30;;;;;;5063982;28;19980;-70
2022/10/12 13:46:46;;;;;;;;;;;18.00;80.10;;;;;;5062347;28;20081;-71
2022/10/12 13:49:14;;;;;;;;;;;18.00;79.90;;;;;;5063459;28;19996;-71
2022/10/12 13:51:42;;;;;;;;;;;18.00;80.00;;;;;;5063919;28;20029;-70
2022/10/12 13:54:18;;;;;;;;;;;18.00;80.10;;;;;;5063865;28;20002;-70
2022/10/12 13:56:46;;;;;;;;;;;18.00;80.50;;;;;;5056066;28;19975;-70
2022/10/12 13:59:17;;;;;;;;;;;18.00;80.60;;;;;;5056055;28;19999;-71
2022/10/12 14:01:47;;;;;;;;;;;17.90;80.70;;;;;;5062904;28;20501;-69
2022/10/12 14:04:14;;;;;;;;;;;17.90;80.80;;;;;;5063220;28;19986;-71
2022/10/12 14:06:40;;;;;;;;;;;17.90;81.00;;;;;;5064274;28;19975;-70
2022/10/12 14:09:08;;;;;;;;;;;17.90;81.00;;;;;;5063842;28;20003;-70
2022/10/12 14:11:35;;;;;;;;;;;17.90;81.30;;;;;;5062698;28;19986;-70
2022/10/12 14:14:02;;;;;;;;;;;17.80;81.30;;;;;;5064917;28;19979;-70
2022/10/12 14:16:30;;;;;;;;;;;17.80;81.50;;;;;;5063127;28;19991;-70
2022/10/12 14:19:16;;;;;;;;;;;17.90;81.60;;;;;;5062827;28;20505;-71
2022/10/12 14:21:45;;;;;;;;;;;17.80;81.60;;;;;;5056434;28;19983;-71
2022/10/12 14:24:16;;;;;;;;;;;17.80;81.70;;;;;;5064014;28;20057;-71